sensor_id;sensor_type;location;lat;lon;timestamp;temperature;humidity
42097;DHT22;27754;45.414;11.084;2022-09-02T00:02:05;21.80;65.80
42097;DHT22;27754;45.414;11.084;2022-09-02T00:04:33;21.80;65.50
42097;DHT22;27754;45.414;11.084;2022-09-02T00:07:00;21.70;65.70
42097;DHT22;27754;45.414;11.084;2022-09-02T00:09:27;21.70;65.70
42097;DHT22;27754;45.414;11.084;2022-09-02T00:11:55;21.70;66.30
42097;DHT22;27754;45.414;11.084;2022-09-02T00:14:26;21.60;66.10
42097;DHT22;27754;45.414;11.084;2022-09-02T00:16:53;21.60;66.10
42097;DHT22;27754;45.414;11.084;2022-09-02T00:19:24;21.60;66.00
42097;DHT22;27754;45.414;11.084;2022-09-02T00:21:52;21.60;66.20
42097;DHT22;27754;45.414;11.084;2022-09-02T00:24:21;21.60;66.10
42097;DHT22;27754;45.414;11.084;2022-09-02T00:26:48;21.60;66.10
42097;DHT22;27754;45.414;11.084;2022-09-02T00:29:15;21.60;66.60
42097;DHT22;27754;45.414;11.084;2022-09-02T00:31:43;21.60;66.50
42097;DHT22;27754;45.414;11.084;2022-09-02T00:34:11;21.50;66.40
42097;DHT22;27754;45.414;11.084;2022-09-02T00:36:39;21.50;66.70
42097;DHT22;27754;45.414;11.084;2022-09-02T00:39:06;21.50;66.80
42097;DHT22;27754;45.414;11.084;2022-09-02T00:41:36;21.50;66.80
42097;DHT22;27754;45.414;11.084;2022-09-02T00:44:09;21.50;67.10
42097;DHT22;27754;45.414;11.084;2022-09-02T00:46:38;21.50;66.50
42097;DHT22;27754;45.414;11.084;2022-09-02T00:49:13;21.50;66.70
42097;DHT22;27754;45.414;11.084;2022-09-02T00:51:55;21.60;66.50
42097;DHT22;27754;45.414;11.084;2022-09-02T00:54:24;21.70;66.00
42097;DHT22;27754;45.414;11.084;2022-09-02T00:56:52;21.70;66.00
42097;DHT22;27754;45.414;11.084;2022-09-02T00:59:26;21.70;66.30
42097;DHT22;27754;45.414;11.084;2022-09-02T01:01:56;21.60;66.10
42097;DHT22;27754;45.414;11.084;2022-09-02T01:04:24;21.70;66.10
42097;DHT22;27754;45.414;11.084;2022-09-02T01:06:51;21.60;66.30
42097;DHT22;27754;45.414;11.084;2022-09-02T01:09:19;21.60;65.80
42097;DHT22;27754;45.414;11.084;2022-09-02T01:11:48;21.60;65.80
42097;DHT22;27754;45.414;11.084;2022-09-02T01:14:19;21.60;66.10
42097;DHT22;27754;45.414;11.084;2022-09-02T01:17:03;21.50;66.50
42097;DHT22;27754;45.414;11.084;2022-09-02T01:19:35;21.50;66.90
42097;DHT22;27754;45.414;11.084;2022-09-02T01:22:19;21.40;67.10
42097;DHT22;27754;45.414;11.084;2022-09-02T01:24:47;21.40;67.40
42097;DHT22;27754;45.414;11.084;2022-09-02T01:27:19;21.30;67.30
42097;DHT22;27754;45.414;11.084;2022-09-02T01:29:51;21.40;67.30
42097;DHT22;27754;45.414;11.084;2022-09-02T01:32:20;21.40;67.20
42097;DHT22;27754;45.414;11.084;2022-09-02T01:34:47;21.40;66.90
42097;DHT22;27754;45.414;11.084;2022-09-02T01:37:15;21.40;66.90
42097;DHT22;27754;45.414;11.084;2022-09-02T01:39:42;21.40;66.90
42097;DHT22;27754;45.414;11.084;2022-09-02T01:42:12;21.40;66.80
42097;DHT22;27754;45.414;11.084;2022-09-02T01:44:41;21.40;66.90
42097;DHT22;27754;45.414;11.084;2022-09-02T01:47:14;21.40;66.90
42097;DHT22;27754;45.414;11.084;2022-09-02T01:49:42;21.40;67.10
42097;DHT22;27754;45.414;11.084;2022-09-02T01:52:10;21.40;66.70
42097;DHT22;27754;45.414;11.084;2022-09-02T01:54:37;21.40;66.80
42097;DHT22;27754;45.414;11.084;2022-09-02T01:57:06;21.40;66.90
42097;DHT22;27754;45.414;11.084;2022-09-02T01:59:33;21.30;67.00
42097;DHT22;27754;45.414;11.084;2022-09-02T02:02:00;21.30;67.20
42097;DHT22;27754;45.414;11.084;2022-09-02T02:04:28;21.30;67.20
42097;DHT22;27754;45.414;11.084;2022-09-02T02:06:56;21.20;67.30
42097;DHT22;27754;45.414;11.084;2022-09-02T02:09:23;21.20;67.50
42097;DHT22;27754;45.414;11.084;2022-09-02T02:11:51;21.20;67.60
42097;DHT22;27754;45.414;11.084;2022-09-02T02:14:18;21.30;67.50
42097;DHT22;27754;45.414;11.084;2022-09-02T02:16:48;21.30;67.70
42097;DHT22;27754;45.414;11.084;2022-09-02T02:19:16;21.20;67.40
42097;DHT22;27754;45.414;11.084;2022-09-02T02:21:43;21.30;67.20
42097;DHT22;27754;45.414;11.084;2022-09-02T02:24:11;21.20;67.30
42097;DHT22;27754;45.414;11.084;2022-09-02T02:26:38;21.20;67.50
42097;DHT22;27754;45.414;11.084;2022-09-02T02:29:07;21.10;67.60
42097;DHT22;27754;45.414;11.084;2022-09-02T02:31:37;21.10;68.00
42097;DHT22;27754;45.414;11.084;2022-09-02T02:34:04;21.10;67.90
42097;DHT22;27754;45.414;11.084;2022-09-02T02:36:32;21.10;68.20
42097;DHT22;27754;45.414;11.084;2022-09-02T02:39:00;21.10;67.80
42097;DHT22;27754;45.414;11.084;2022-09-02T02:41:29;21.10;67.70
42097;DHT22;27754;45.414;11.084;2022-09-02T02:43:57;21.10;68.00
42097;DHT22;27754;45.414;11.084;2022-09-02T02:46:24;21.10;68.30
42097;DHT22;27754;45.414;11.084;2022-09-02T02:48:52;21.10;68.10
42097;DHT22;27754;45.414;11.084;2022-09-02T02:51:19;20.90;68.40
42097;DHT22;27754;45.414;11.084;2022-09-02T02:53:48;20.90;68.40
42097;DHT22;27754;45.414;11.084;2022-09-02T02:56:16;20.90;69.10
42097;DHT22;27754;45.414;11.084;2022-09-02T02:58:43;20.90;69.00
42097;DHT22;27754;45.414;11.084;2022-09-02T03:01:11;20.80;68.90
42097;DHT22;27754;45.414;11.084;2022-09-02T03:03:38;20.80;68.90
42097;DHT22;27754;45.414;11.084;2022-09-02T03:06:06;20.90;69.10
42097;DHT22;27754;45.414;11.084;2022-09-02T03:08:33;20.90;68.60
42097;DHT22;27754;45.414;11.084;2022-09-02T03:11:04;21.00;68.00
42097;DHT22;27754;45.414;11.084;2022-09-02T03:13:36;20.90;68.50
42097;DHT22;27754;45.414;11.084;2022-09-02T03:16:04;21.00;68.10
42097;DHT22;27754;45.414;11.084;2022-09-02T03:18:33;21.00;67.80
42097;DHT22;27754;45.414;11.084;2022-09-02T03:21:00;20.90;68.30
42097;DHT22;27754;45.414;11.084;2022-09-02T03:23:27;20.90;68.20
42097;DHT22;27754;45.414;11.084;2022-09-02T03:25:54;20.90;68.50
42097;DHT22;27754;45.414;11.084;2022-09-02T03:28:27;20.90;68.70
42097;DHT22;27754;45.414;11.084;2022-09-02T03:30:56;20.90;68.40
42097;DHT22;27754;45.414;11.084;2022-09-02T03:33:25;20.90;68.30
42097;DHT22;27754;45.414;11.084;2022-09-02T03:35:53;20.80;68.40
42097;DHT22;27754;45.414;11.084;2022-09-02T03:38:20;20.80;68.50
42097;DHT22;27754;45.414;11.084;2022-09-02T03:40:47;20.80;68.50
42097;DHT22;27754;45.414;11.084;2022-09-02T03:43:14;20.80;68.60
42097;DHT22;27754;45.414;11.084;2022-09-02T03:45:42;20.70;68.60
42097;DHT22;27754;45.414;11.084;2022-09-02T03:48:13;20.70;68.50
42097;DHT22;27754;45.414;11.084;2022-09-02T03:50:43;20.70;68.30
42097;DHT22;27754;45.414;11.084;2022-09-02T03:53:15;20.70;68.30
42097;DHT22;27754;45.414;11.084;2022-09-02T03:55:47;20.80;68.30
42097;DHT22;27754;45.414;11.084;2022-09-02T03:58:17;20.70;68.30
42097;DHT22;27754;45.414;11.084;2022-09-02T04:00:52;20.70;68.40
42097;DHT22;27754;45.414;11.084;2022-09-02T04:03:22;20.70;68.40
42097;DHT22;27754;45.414;11.084;2022-09-02T04:05:50;20.70;68.30
42097;DHT22;27754;45.414;11.084;2022-09-02T04:08:19;20.70;68.20
42097;DHT22;27754;45.414;11.084;2022-09-02T04:10:47;20.60;68.40
42097;DHT22;27754;45.414;11.084;2022-09-02T04:13:14;20.60;68.60
42097;DHT22;27754;45.414;11.084;2022-09-02T04:15:43;20.60;68.50
42097;DHT22;27754;45.414;11.084;2022-09-02T04:18:11;20.60;68.50
42097;DHT22;27754;45.414;11.084;2022-09-02T04:20:39;20.50;68.80
42097;DHT22;27754;45.414;11.084;2022-09-02T04:23:07;20.50;68.80
42097;DHT22;27754;45.414;11.084;2022-09-02T04:25:41;20.50;68.60
42097;DHT22;27754;45.414;11.084;2022-09-02T04:28:09;20.40;68.80
42097;DHT22;27754;45.414;11.084;2022-09-02T04:30:41;20.40;68.90
42097;DHT22;27754;45.414;11.084;2022-09-02T04:33:10;20.40;68.60
42097;DHT22;27754;45.414;11.084;2022-09-02T04:35:42;20.40;68.70
42097;DHT22;27754;45.414;11.084;2022-09-02T04:38:10;20.40;69.00
42097;DHT22;27754;45.414;11.084;2022-09-02T04:40:43;20.40;69.30
42097;DHT22;27754;45.414;11.084;2022-09-02T04:43:10;20.40;69.30
42097;DHT22;27754;45.414;11.084;2022-09-02T04:45:39;20.30;69.40
42097;DHT22;27754;45.414;11.084;2022-09-02T04:48:07;20.30;69.40
42097;DHT22;27754;45.414;11.084;2022-09-02T04:50:35;20.30;69.40
42097;DHT22;27754;45.414;11.084;2022-09-02T04:53:04;20.20;68.60
42097;DHT22;27754;45.414;11.084;2022-09-02T04:55:31;20.20;68.30
42097;DHT22;27754;45.414;11.084;2022-09-02T04:57:59;20.20;68.20
42097;DHT22;27754;45.414;11.084;2022-09-02T05:00:26;20.20;68.10
42097;DHT22;27754;45.414;11.084;2022-09-02T05:02:54;20.20;67.80
42097;DHT22;27754;45.414;11.084;2022-09-02T05:05:24;20.30;67.50
42097;DHT22;27754;45.414;11.084;2022-09-02T05:07:52;20.30;67.70
42097;DHT22;27754;45.414;11.084;2022-09-02T05:10:22;20.40;67.80
42097;DHT22;27754;45.414;11.084;2022-09-02T05:12:50;20.60;67.80
42097;DHT22;27754;45.414;11.084;2022-09-02T05:15:18;20.70;68.30
42097;DHT22;27754;45.414;11.084;2022-09-02T05:17:46;20.70;68.90
42097;DHT22;27754;45.414;11.084;2022-09-02T05:20:14;20.80;68.80
42097;DHT22;27754;45.414;11.084;2022-09-02T05:22:43;20.90;68.90
42097;DHT22;27754;45.414;11.084;2022-09-02T05:25:10;21.00;68.30
42097;DHT22;27754;45.414;11.084;2022-09-02T05:27:37;21.10;68.20
42097;DHT22;27754;45.414;11.084;2022-09-02T05:30:06;21.30;68.50
42097;DHT22;27754;45.414;11.084;2022-09-02T05:32:34;21.30;68.10
42097;DHT22;27754;45.414;11.084;2022-09-02T05:35:05;21.30;68.20
42097;DHT22;27754;45.414;11.084;2022-09-02T05:37:34;21.30;68.40
42097;DHT22;27754;45.414;11.084;2022-09-02T05:40:04;21.20;68.00
42097;DHT22;27754;45.414;11.084;2022-09-02T05:42:35;21.30;68.10
42097;DHT22;27754;45.414;11.084;2022-09-02T05:45:03;21.30;68.00
42097;DHT22;27754;45.414;11.084;2022-09-02T05:47:32;21.30;68.80
42097;DHT22;27754;45.414;11.084;2022-09-02T05:50:00;21.40;68.70
42097;DHT22;27754;45.414;11.084;2022-09-02T05:52:34;21.60;68.30
42097;DHT22;27754;45.414;11.084;2022-09-02T05:55:02;21.80;66.90
42097;DHT22;27754;45.414;11.084;2022-09-02T05:57:31;21.70;64.50
42097;DHT22;27754;45.414;11.084;2022-09-02T06:00:04;21.60;65.30
42097;DHT22;27754;45.414;11.084;2022-09-02T06:02:42;21.60;64.90
42097;DHT22;27754;45.414;11.084;2022-09-02T06:05:23;21.70;65.00
42097;DHT22;27754;45.414;11.084;2022-09-02T06:07:58;21.70;65.80
42097;DHT22;27754;45.414;11.084;2022-09-02T06:10:25;21.80;65.30
42097;DHT22;27754;45.414;11.084;2022-09-02T06:12:53;21.90;64.80
42097;DHT22;27754;45.414;11.084;2022-09-02T06:15:23;21.90;64.20
42097;DHT22;27754;45.414;11.084;2022-09-02T06:17:54;22.10;64.40
42097;DHT22;27754;45.414;11.084;2022-09-02T06:20:26;22.30;64.20
42097;DHT22;27754;45.414;11.084;2022-09-02T06:22:54;22.40;64.00
42097;DHT22;27754;45.414;11.084;2022-09-02T06:25:23;22.80;63.90
42097;DHT22;27754;45.414;11.084;2022-09-02T06:27:51;22.90;62.20
42097;DHT22;27754;45.414;11.084;2022-09-02T06:30:18;23.10;63.20
42097;DHT22;27754;45.414;11.084;2022-09-02T06:32:45;23.30;64.50
42097;DHT22;27754;45.414;11.084;2022-09-02T06:35:17;23.50;64.00
42097;DHT22;27754;45.414;11.084;2022-09-02T06:37:44;23.40;62.20
42097;DHT22;27754;45.414;11.084;2022-09-02T06:40:11;23.60;63.40
42097;DHT22;27754;45.414;11.084;2022-09-02T06:42:40;23.70;63.20
42097;DHT22;27754;45.414;11.084;2022-09-02T06:45:24;23.70;63.50
42097;DHT22;27754;45.414;11.084;2022-09-02T06:47:54;23.80;63.50
42097;DHT22;27754;45.414;11.084;2022-09-02T06:50:21;23.90;62.90
42097;DHT22;27754;45.414;11.084;2022-09-02T06:52:49;23.90;61.70
42097;DHT22;27754;45.414;11.084;2022-09-02T06:55:17;23.90;61.20
42097;DHT22;27754;45.414;11.084;2022-09-02T06:57:44;24.40;60.60
42097;DHT22;27754;45.414;11.084;2022-09-02T07:00:13;24.50;57.60
42097;DHT22;27754;45.414;11.084;2022-09-02T07:02:42;24.50;57.70
42097;DHT22;27754;45.414;11.084;2022-09-02T07:05:09;24.40;58.70
42097;DHT22;27754;45.414;11.084;2022-09-02T07:07:40;24.50;58.40
42097;DHT22;27754;45.414;11.084;2022-09-02T07:10:12;24.60;57.90
42097;DHT22;27754;45.414;11.084;2022-09-02T07:12:44;24.90;58.80
42097;DHT22;27754;45.414;11.084;2022-09-02T07:15:14;25.00;59.20
42097;DHT22;27754;45.414;11.084;2022-09-02T07:17:42;25.10;58.40
42097;DHT22;27754;45.414;11.084;2022-09-02T07:20:14;24.60;59.00
42097;DHT22;27754;45.414;11.084;2022-09-02T07:22:47;24.90;59.20
42097;DHT22;27754;45.414;11.084;2022-09-02T07:25:21;24.90;57.70
42097;DHT22;27754;45.414;11.084;2022-09-02T07:27:49;24.80;59.40
42097;DHT22;27754;45.414;11.084;2022-09-02T07:30:17;25.00;58.40
42097;DHT22;27754;45.414;11.084;2022-09-02T07:32:47;25.30;57.50
42097;DHT22;27754;45.414;11.084;2022-09-02T07:35:18;25.00;57.30
42097;DHT22;27754;45.414;11.084;2022-09-02T07:37:45;25.10;56.60
42097;DHT22;27754;45.414;11.084;2022-09-02T07:40:13;25.00;57.50
42097;DHT22;27754;45.414;11.084;2022-09-02T07:42:42;25.50;56.80
42097;DHT22;27754;45.414;11.084;2022-09-02T07:45:10;26.00;56.00
42097;DHT22;27754;45.414;11.084;2022-09-02T07:47:40;26.00;55.60
42097;DHT22;27754;45.414;11.084;2022-09-02T07:50:09;26.10;53.90
42097;DHT22;27754;45.414;11.084;2022-09-02T07:52:56;25.80;54.00
42097;DHT22;27754;45.414;11.084;2022-09-02T07:55:25;25.40;53.80
42097;DHT22;27754;45.414;11.084;2022-09-02T07:57:53;25.40;55.40
42097;DHT22;27754;45.414;11.084;2022-09-02T08:00:23;25.80;53.90
42097;DHT22;27754;45.414;11.084;2022-09-02T08:02:55;25.70;53.40
42097;DHT22;27754;45.414;11.084;2022-09-02T08:05:29;25.90;53.40
42097;DHT22;27754;45.414;11.084;2022-09-02T08:07:58;26.10;52.30
42097;DHT22;27754;45.414;11.084;2022-09-02T08:10:27;25.80;52.90
42097;DHT22;27754;45.414;11.084;2022-09-02T08:12:56;26.00;53.80
42097;DHT22;27754;45.414;11.084;2022-09-02T08:15:26;25.80;52.50
42097;DHT22;27754;45.414;11.084;2022-09-02T08:17:58;25.70;52.40
42097;DHT22;27754;45.414;11.084;2022-09-02T08:20:25;25.60;51.90
42097;DHT22;27754;45.414;11.084;2022-09-02T08:22:52;25.20;52.20
42097;DHT22;27754;45.414;11.084;2022-09-02T08:25:37;24.80;54.20
42097;DHT22;27754;45.414;11.084;2022-09-02T08:28:05;25.40;53.00
42097;DHT22;27754;45.414;11.084;2022-09-02T08:30:32;25.70;52.20
42097;DHT22;27754;45.414;11.084;2022-09-02T08:33:00;26.10;51.30
42097;DHT22;27754;45.414;11.084;2022-09-02T08:35:26;26.30;50.60
42097;DHT22;27754;45.414;11.084;2022-09-02T08:37:53;25.70;50.20
42097;DHT22;27754;45.414;11.084;2022-09-02T08:40:22;25.70;50.80
42097;DHT22;27754;45.414;11.084;2022-09-02T08:42:53;25.80;51.60
42097;DHT22;27754;45.414;11.084;2022-09-02T08:45:36;25.90;51.10
42097;DHT22;27754;45.414;11.084;2022-09-02T08:48:18;25.80;51.50
42097;DHT22;27754;45.414;11.084;2022-09-02T08:50:49;26.00;51.10
42097;DHT22;27754;45.414;11.084;2022-09-02T08:53:36;26.30;51.40
42097;DHT22;27754;45.414;11.084;2022-09-02T08:56:07;26.30;51.50
42097;DHT22;27754;45.414;11.084;2022-09-02T08:58:39;26.30;50.70
42097;DHT22;27754;45.414;11.084;2022-09-02T09:01:31;26.00;51.80
42097;DHT22;27754;45.414;11.084;2022-09-02T09:15:37;26.70;49.80
42097;DHT22;27754;45.414;11.084;2022-09-02T09:18:15;26.80;50.10
42097;DHT22;27754;45.414;11.084;2022-09-02T09:20:44;26.40;48.80
42097;DHT22;27754;45.414;11.084;2022-09-02T09:23:32;25.90;50.60
42097;DHT22;27754;45.414;11.084;2022-09-02T09:26:09;25.80;50.70
42097;DHT22;27754;45.414;11.084;2022-09-02T09:28:40;26.30;52.00
42097;DHT22;27754;45.414;11.084;2022-09-02T09:31:16;26.80;50.30
42097;DHT22;27754;45.414;11.084;2022-09-02T09:39:28;27.00;48.90
42097;DHT22;27754;45.414;11.084;2022-09-02T09:41:58;27.10;47.80
42097;DHT22;27754;45.414;11.084;2022-09-02T09:44:45;27.10;49.60
42097;DHT22;27754;45.414;11.084;2022-09-02T09:47:21;27.10;48.10
42097;DHT22;27754;45.414;11.084;2022-09-02T09:50:02;26.70;48.10
42097;DHT22;27754;45.414;11.084;2022-09-02T09:52:35;26.90;48.80
42097;DHT22;27754;45.414;11.084;2022-09-02T09:55:17;26.80;47.80
42097;DHT22;27754;45.414;11.084;2022-09-02T09:57:50;26.70;48.40
42097;DHT22;27754;45.414;11.084;2022-09-02T10:00:27;27.00;47.10
42097;DHT22;27754;45.414;11.084;2022-09-02T10:03:00;27.50;48.20
42097;DHT22;27754;45.414;11.084;2022-09-02T10:05:31;27.80;46.30
42097;DHT22;27754;45.414;11.084;2022-09-02T10:08:27;27.90;47.40
42097;DHT22;27754;45.414;11.084;2022-09-02T10:11:19;27.80;47.30
42097;DHT22;27754;45.414;11.084;2022-09-02T10:13:47;27.50;46.70
42097;DHT22;27754;45.414;11.084;2022-09-02T10:16:52;26.80;47.10
42097;DHT22;27754;45.414;11.084;2022-09-02T10:26:30;27.30;47.30
42097;DHT22;27754;45.414;11.084;2022-09-02T10:37:24;27.60;47.20
42097;DHT22;27754;45.414;11.084;2022-09-02T10:40:14;27.40;46.50
42097;DHT22;27754;45.414;11.084;2022-09-02T10:43:04;27.30;48.10
42097;DHT22;27754;45.414;11.084;2022-09-02T10:45:49;27.50;48.40
42097;DHT22;27754;45.414;11.084;2022-09-02T10:51:00;27.00;47.80
42097;DHT22;27754;45.414;11.084;2022-09-02T10:56:18;27.30;47.40
42097;DHT22;27754;45.414;11.084;2022-09-02T10:59:02;27.30;47.60
42097;DHT22;27754;45.414;11.084;2022-09-02T11:01:40;27.60;46.60
42097;DHT22;27754;45.414;11.084;2022-09-02T11:07:07;27.40;47.50
42097;DHT22;27754;45.414;11.084;2022-09-02T11:09:58;27.60;47.70
42097;DHT22;27754;45.414;11.084;2022-09-02T11:12:31;27.80;46.60
42097;DHT22;27754;45.414;11.084;2022-09-02T11:18:02;27.60;47.70
42097;DHT22;27754;45.414;11.084;2022-09-02T11:20:42;27.60;48.00
42097;DHT22;27754;45.414;11.084;2022-09-02T11:26:22;27.70;46.80
42097;DHT22;27754;45.414;11.084;2022-09-02T11:29:01;27.60;47.50
42097;DHT22;27754;45.414;11.084;2022-09-02T11:31:48;27.50;47.70
42097;DHT22;27754;45.414;11.084;2022-09-02T11:34:35;27.60;46.70
42097;DHT22;27754;45.414;11.084;2022-09-02T11:37:10;27.30;46.70
42097;DHT22;27754;45.414;11.084;2022-09-02T11:39:48;27.30;47.00
42097;DHT22;27754;45.414;11.084;2022-09-02T11:45:29;27.50;46.00
42097;DHT22;27754;45.414;11.084;2022-09-02T11:48:33;27.40;46.70
42097;DHT22;27754;45.414;11.084;2022-09-02T11:54:01;27.30;47.10
42097;DHT22;27754;45.414;11.084;2022-09-02T11:56:39;27.30;46.80
42097;DHT22;27754;45.414;11.084;2022-09-02T11:59:22;27.40;47.50
42097;DHT22;27754;45.414;11.084;2022-09-02T12:01:53;27.60;46.50
42097;DHT22;27754;45.414;11.084;2022-09-02T12:04:24;27.50;46.80
42097;DHT22;27754;45.414;11.084;2022-09-02T12:09:55;27.50;46.30
42097;DHT22;27754;45.414;11.084;2022-09-02T12:26:16;27.70;46.90
42097;DHT22;27754;45.414;11.084;2022-09-02T12:28:44;27.80;46.90
42097;DHT22;27754;45.414;11.084;2022-09-02T12:33:49;27.50;47.00
42097;DHT22;27754;45.414;11.084;2022-09-02T12:56:05;27.50;48.70
42097;DHT22;27754;45.414;11.084;2022-09-02T12:58:43;27.30;48.30
42097;DHT22;27754;45.414;11.084;2022-09-02T13:01:36;27.40;47.80
42097;DHT22;27754;45.414;11.084;2022-09-02T13:18:10;27.60;48.20
42097;DHT22;27754;45.414;11.084;2022-09-02T13:29:50;28.00;46.40
42097;DHT22;27754;45.414;11.084;2022-09-02T13:32:24;28.00;46.20
42097;DHT22;27754;45.414;11.084;2022-09-02T13:34:55;27.90;45.70
42097;DHT22;27754;45.414;11.084;2022-09-02T13:37:28;28.00;45.90
42097;DHT22;27754;45.414;11.084;2022-09-02T13:39:55;27.70;46.30
42097;DHT22;27754;45.414;11.084;2022-09-02T13:42:25;27.80;47.50
42097;DHT22;27754;45.414;11.084;2022-09-02T13:45:15;28.00;47.20
42097;DHT22;27754;45.414;11.084;2022-09-02T13:47:47;28.10;47.00
42097;DHT22;27754;45.414;11.084;2022-09-02T13:50:17;28.10;47.30
42097;DHT22;27754;45.414;11.084;2022-09-02T13:52:47;28.20;45.80
42097;DHT22;27754;45.414;11.084;2022-09-02T13:55:37;28.20;46.40
42097;DHT22;27754;45.414;11.084;2022-09-02T14:01:01;28.30;46.10
42097;DHT22;27754;45.414;11.084;2022-09-02T14:03:47;28.50;44.40
42097;DHT22;27754;45.414;11.084;2022-09-02T14:06:22;28.40;44.40
42097;DHT22;27754;45.414;11.084;2022-09-02T14:08:52;28.30;45.30
42097;DHT22;27754;45.414;11.084;2022-09-02T14:11:21;28.10;45.40
42097;DHT22;27754;45.414;11.084;2022-09-02T14:13:49;28.20;45.30
42097;DHT22;27754;45.414;11.084;2022-09-02T14:16:30;28.30;46.20
42097;DHT22;27754;45.414;11.084;2022-09-02T14:21:56;28.30;46.70
42097;DHT22;27754;45.414;11.084;2022-09-02T14:24:28;28.20;46.60
42097;DHT22;27754;45.414;11.084;2022-09-02T14:26:57;28.30;46.60
42097;DHT22;27754;45.414;11.084;2022-09-02T14:29:28;28.20;46.10
42097;DHT22;27754;45.414;11.084;2022-09-02T14:34:45;28.20;45.70
42097;DHT22;27754;45.414;11.084;2022-09-02T14:37:24;28.30;46.10
42097;DHT22;27754;45.414;11.084;2022-09-02T14:42:31;28.40;45.00
42097;DHT22;27754;45.414;11.084;2022-09-02T14:44:59;28.60;44.90
42097;DHT22;27754;45.414;11.084;2022-09-02T14:47:28;28.60;45.10
42097;DHT22;27754;45.414;11.084;2022-09-02T14:49:55;28.70;45.20
42097;DHT22;27754;45.414;11.084;2022-09-02T14:52:27;28.60;44.50
42097;DHT22;27754;45.414;11.084;2022-09-02T14:54:56;28.10;45.00
42097;DHT22;27754;45.414;11.084;2022-09-02T14:57:34;28.30;45.20
42097;DHT22;27754;45.414;11.084;2022-09-02T15:00:08;28.30;45.30
42097;DHT22;27754;45.414;11.084;2022-09-02T15:02:42;28.20;45.40
42097;DHT22;27754;45.414;11.084;2022-09-02T15:05:11;28.10;46.20
42097;DHT22;27754;45.414;11.084;2022-09-02T15:07:42;28.20;45.50
42097;DHT22;27754;45.414;11.084;2022-09-02T15:10:09;28.30;45.40
42097;DHT22;27754;45.414;11.084;2022-09-02T15:12:46;28.40;45.10
42097;DHT22;27754;45.414;11.084;2022-09-02T15:15:15;28.30;45.40
42097;DHT22;27754;45.414;11.084;2022-09-02T15:17:43;28.30;44.80
42097;DHT22;27754;45.414;11.084;2022-09-02T15:20:10;28.10;46.10
42097;DHT22;27754;45.414;11.084;2022-09-02T15:22:37;27.80;46.60
42097;DHT22;27754;45.414;11.084;2022-09-02T15:25:05;27.80;45.70
42097;DHT22;27754;45.414;11.084;2022-09-02T15:27:34;27.90;46.10
42097;DHT22;27754;45.414;11.084;2022-09-02T15:30:01;28.00;46.10
42097;DHT22;27754;45.414;11.084;2022-09-02T15:32:28;28.00;46.70
42097;DHT22;27754;45.414;11.084;2022-09-02T15:34:55;28.10;45.70
42097;DHT22;27754;45.414;11.084;2022-09-02T15:37:22;28.10;46.00
42097;DHT22;27754;45.414;11.084;2022-09-02T15:39:50;28.10;46.10
42097;DHT22;27754;45.414;11.084;2022-09-02T15:42:17;27.90;46.20
42097;DHT22;27754;45.414;11.084;2022-09-02T15:44:44;27.80;47.10
42097;DHT22;27754;45.414;11.084;2022-09-02T15:47:11;27.60;46.60
42097;DHT22;27754;45.414;11.084;2022-09-02T15:49:38;27.70;46.90
42097;DHT22;27754;45.414;11.084;2022-09-02T15:52:06;27.70;46.90
42097;DHT22;27754;45.414;11.084;2022-09-02T15:54:33;27.70;46.30
42097;DHT22;27754;45.414;11.084;2022-09-02T15:57:00;27.70;47.00
42097;DHT22;27754;45.414;11.084;2022-09-02T15:59:27;27.70;46.40
42097;DHT22;27754;45.414;11.084;2022-09-02T16:01:55;27.40;46.50
42097;DHT22;27754;45.414;11.084;2022-09-02T16:04:24;27.40;47.00
42097;DHT22;27754;45.414;11.084;2022-09-02T16:06:53;27.30;46.90
42097;DHT22;27754;45.414;11.084;2022-09-02T16:09:20;27.40;47.30
42097;DHT22;27754;45.414;11.084;2022-09-02T16:11:53;27.30;47.60
42097;DHT22;27754;45.414;11.084;2022-09-02T16:14:23;27.40;48.10
42097;DHT22;27754;45.414;11.084;2022-09-02T16:16:51;27.30;47.40
42097;DHT22;27754;45.414;11.084;2022-09-02T16:19:22;27.30;47.30
42097;DHT22;27754;45.414;11.084;2022-09-02T16:21:50;27.30;47.40
42097;DHT22;27754;45.414;11.084;2022-09-02T16:24:18;27.30;48.00
42097;DHT22;27754;45.414;11.084;2022-09-02T16:26:47;27.10;48.20
42097;DHT22;27754;45.414;11.084;2022-09-02T16:29:15;27.10;48.00
42097;DHT22;27754;45.414;11.084;2022-09-02T16:31:45;27.00;48.30
42097;DHT22;27754;45.414;11.084;2022-09-02T16:34:32;26.90;48.10
42097;DHT22;27754;45.414;11.084;2022-09-02T16:36:59;26.90;48.50
42097;DHT22;27754;45.414;11.084;2022-09-02T16:39:26;26.80;48.20
42097;DHT22;27754;45.414;11.084;2022-09-02T16:41:53;26.70;48.80
42097;DHT22;27754;45.414;11.084;2022-09-02T16:44:22;26.70;49.20
42097;DHT22;27754;45.414;11.084;2022-09-02T16:46:51;26.60;49.30
42097;DHT22;27754;45.414;11.084;2022-09-02T16:49:19;26.60;49.40
42097;DHT22;27754;45.414;11.084;2022-09-02T16:51:50;26.50;49.50
42097;DHT22;27754;45.414;11.084;2022-09-02T16:54:25;26.60;49.40
42097;DHT22;27754;45.414;11.084;2022-09-02T16:56:57;26.50;49.70
42097;DHT22;27754;45.414;11.084;2022-09-02T16:59:24;26.50;49.60
42097;DHT22;27754;45.414;11.084;2022-09-02T17:01:51;26.40;50.20
42097;DHT22;27754;45.414;11.084;2022-09-02T17:04:18;26.30;50.70
42097;DHT22;27754;45.414;11.084;2022-09-02T17:06:45;26.30;50.60
42097;DHT22;27754;45.414;11.084;2022-09-02T17:09:12;26.30;51.70
42097;DHT22;27754;45.414;11.084;2022-09-02T17:11:39;26.20;51.40
42097;DHT22;27754;45.414;11.084;2022-09-02T17:14:10;26.10;51.50
42097;DHT22;27754;45.414;11.084;2022-09-02T17:16:43;26.00;51.20
42097;DHT22;27754;45.414;11.084;2022-09-02T17:19:11;26.00;51.80
42097;DHT22;27754;45.414;11.084;2022-09-02T17:21:44;25.90;51.80
42097;DHT22;27754;45.414;11.084;2022-09-02T17:24:14;25.80;51.90
42097;DHT22;27754;45.414;11.084;2022-09-02T17:26:42;25.70;52.30
42097;DHT22;27754;45.414;11.084;2022-09-02T17:29:14;25.60;52.90
42097;DHT22;27754;45.414;11.084;2022-09-02T17:32:04;25.60;54.20
42097;DHT22;27754;45.414;11.084;2022-09-02T17:34:31;25.50;53.80
42097;DHT22;27754;45.414;11.084;2022-09-02T17:36:59;25.40;53.90
42097;DHT22;27754;45.414;11.084;2022-09-02T17:39:26;25.30;54.00
42097;DHT22;27754;45.414;11.084;2022-09-02T17:41:53;25.30;54.10
42097;DHT22;27754;45.414;11.084;2022-09-02T17:44:23;25.20;54.00
42097;DHT22;27754;45.414;11.084;2022-09-02T17:46:51;25.10;54.60